Time;durP1;ratioP1;P1;durP2;ratioP2;P2;SDS_P1;SDS_P2;PMS_P1;PMS_P2;Temp;Humidity;BMP_temperature;BMP_pressure;BME280_temperature;BME280_humidity;BME280_pressure;Samples;Min_cycle;Max_cycle;Signal;HPM_P1;HPM_P2
2023/04/06 00:01:18;;;;;;;4.38;3.45;;;9.80;75.00;;;;;;5053740;28;20041;-72
2023/04/06 00:04:23;;;;;;;8.48;3.67;;;10.90;75.20;;;;;;5054596;28;20037;-72
2023/04/06 00:07:28;;;;;;;6.40;3.83;;;9.10;74.50;;;;;;5054846;28;20044;-72
2023/04/06 00:10:32;;;;;;;7.47;3.78;;;9.40;74.60;;;;;;5054577;28;20050;-73
2023/04/06 00:13:36;;;;;;;7.63;4.07;;;11.30;75.40;;;;;;5054588;28;20056;-72
2023/04/06 00:16:40;;;;;;;3.83;3.38;;;9.10;73.80;;;;;;5054624;28;20052;-73
2023/04/06 00:19:44;;;;;;;7.20;3.53;;;10.00;74.00;;;;;;5054527;28;20041;-72
2023/04/06 00:22:48;;;;;;;8.00;4.32;;;9.40;73.60;;;;;;5054409;28;20063;-73
2023/04/06 00:25:52;;;;;;;8.00;3.40;;;;;;;;;;5054121;28;20045;-72
2023/04/06 00:28:58;;;;;;;6.95;4.13;;;9.70;73.70;;;;;;5053189;28;20041;-73
2023/04/06 00:32:02;;;;;;;4.68;3.47;;;9.50;73.70;;;;;;5053890;28;20071;-72
2023/04/06 00:35:07;;;;;;;5.22;3.50;;;9.60;74.00;;;;;;5052923;28;20516;-72
2023/04/06 00:38:12;;;;;;;9.75;3.60;;;9.00;73.40;;;;;;5053732;28;20040;-73
2023/04/06 00:41:18;;;;;;;7.10;3.58;;;9.10;73.40;;;;;;5053933;28;20501;-73
2023/04/06 00:44:22;;;;;;;6.10;3.35;;;9.20;73.40;;;;;;5054118;28;20050;-72
2023/04/06 00:47:27;;;;;;;6.75;4.35;;;9.40;73.90;;;;;;5053519;28;20036;-71
2023/04/06 00:50:31;;;;;;;6.97;3.63;;;;;;;;;;5052913;28;20036;-72
2023/04/06 00:53:35;;;;;;;7.85;3.90;;;9.60;73.60;;;;;;5053134;28;20037;-73
2023/04/06 00:56:42;;;;;;;5.05;3.70;;;;;;;;;;5053557;28;20052;-73
2023/04/06 00:59:47;;;;;;;8.88;3.53;;;9.70;74.20;;;;;;5052713;28;20477;-73
2023/04/06 01:02:51;;;;;;;6.75;3.58;;;;;;;;;;5052710;28;20037;-72
2023/04/06 01:05:58;;;;;;;8.20;3.42;;;10.70;74.40;;;;;;5052539;28;20037;-72
2023/04/06 01:09:09;;;;;;;7.55;3.90;;;9.70;74.10;;;;;;5052504;28;20040;-72
2023/04/06 01:12:13;;;;;;;11.90;3.97;;;9.60;74.10;;;;;;5052455;28;20388;-72
2023/04/06 01:15:17;;;;;;;5.75;3.75;;;;;;;;;;5052276;28;20052;-72
2023/04/06 01:18:28;;;;;;;8.05;3.75;;;9.60;73.80;;;;;;5052244;28;20037;-73
2023/04/06 01:21:41;;;;;;;6.03;3.60;;;9.10;73.60;;;;;;5052210;28;20408;-71
2023/04/06 01:25:14;;;;;;;7.40;3.92;;;9.50;74.20;;;;;;5055313;28;20407;-72
2023/04/06 01:28:38;;;;;;;6.15;3.90;;;9.50;74.90;;;;;;5053307;28;20052;-72
2023/04/06 01:31:58;;;;;;;9.40;4.28;;;7.70;74.20;;;;;;5052366;28;20037;-71
2023/04/06 01:35:08;;;;;;;5.13;3.40;;;11.40;76.20;;;;;;5052141;28;20044;-72
2023/04/06 01:38:17;;;;;;;5.78;3.95;;;9.30;75.60;;;;;;5051797;28;20488;-74
2023/04/06 01:41:22;;;;;;;6.82;3.97;;;9.50;75.00;;;;;;5051651;28;20033;-72
2023/04/06 01:44:30;;;;;;;13.13;9.48;;;;;;;;;;5051956;28;20032;-71
2023/04/06 01:47:44;;;;;;;7.13;4.05;;;8.80;74.60;;;;;;5052926;28;20048;-72
2023/04/06 01:50:49;;;;;;;7.15;4.13;;;9.40;75.50;;;;;;5051897;28;20037;-73
2023/04/06 01:53:59;;;;;;;5.80;3.80;;;7.30;74.50;;;;;;5040384;28;20150;-73
2023/04/06 01:57:22;;;;;;;8.90;3.78;;;9.80;76.00;;;;;;5051300;28;20055;-72
2023/04/06 02:00:33;;;;;;;8.13;4.50;;;10.30;75.90;;;;;;5051565;28;20041;-72
2023/04/06 02:03:38;;;;;;;6.78;4.10;;;9.90;75.60;;;;;;5052459;28;20095;-72
2023/04/06 02:06:46;;;;;;;7.70;4.22;;;9.40;76.50;;;;;;5051510;28;20044;-72
2023/04/06 02:09:55;;;;;;;13.38;4.80;;;9.30;77.00;;;;;;5040299;28;20037;-72
2023/04/06 02:13:05;;;;;;;11.80;4.10;;;9.70;77.00;;;;;;5051548;28;20056;-72
2023/04/06 02:16:09;;;;;;;6.43;3.88;;;9.40;76.40;;;;;;5051113;28;20443;-73
2023/04/06 02:19:14;;;;;;;7.22;4.28;;;9.10;76.80;;;;;;5051165;28;20041;-72
2023/04/06 02:22:17;;;;;;;6.85;3.83;;;9.20;75.40;;;;;;5052055;28;20395;-72
2023/04/06 02:25:22;;;;;;;5.50;3.72;;;9.40;75.80;;;;;;5050995;28;20519;-72
2023/04/06 02:28:26;;;;;;;10.52;4.65;;;9.30;75.80;;;;;;5051817;28;20045;-72
2023/04/06 02:31:30;;;;;;;7.32;4.00;;;9.30;75.30;;;;;;5051131;28;20052;-72
2023/04/06 02:34:35;;;;;;;9.93;4.30;;;9.30;75.30;;;;;;5051478;28;20408;-73
2023/04/06 02:37:39;;;;;;;10.05;4.50;;;9.20;75.20;;;;;;5051024;28;20062;-72
2023/04/06 02:40:43;;;;;;;9.38;4.47;;;9.30;75.40;;;;;;5051606;28;20199;-72
2023/04/06 02:43:55;;;;;;;7.93;4.25;;;9.30;75.00;;;;;;5051064;28;20509;-72
2023/04/06 02:47:10;;;;;;;8.82;4.82;;;9.10;75.10;;;;;;5050706;28;20523;-73
2023/04/06 02:50:16;;;;;;;8.27;4.80;;;10.00;75.30;;;;;;5050469;28;20052;-72
2023/04/06 02:53:28;;;;;;;9.50;4.15;;;10.00;75.40;;;;;;5050481;28;20056;-72
2023/04/06 02:56:33;;;;;;;5.68;4.20;;;9.30;75.20;;;;;;5050388;28;20116;-71
2023/04/06 02:59:38;;;;;;;8.60;4.60;;;9.90;75.50;;;;;;5050412;28;20032;-72
2023/04/06 03:02:53;;;;;;;5.57;3.95;;;9.40;75.20;;;;;;5040225;28;20033;-71
2023/04/06 03:05:59;;;;;;;6.20;4.13;;;9.30;75.60;;;;;;5050381;28;20120;-72
2023/04/06 03:09:07;;;;;;;7.03;4.47;;;9.20;75.60;;;;;;5050523;28;20040;-72
2023/04/06 03:12:12;;;;;;;8.95;4.35;;;;;;;;;;5050285;28;20029;-72
2023/04/06 03:15:45;;;;;;;6.88;3.80;;;9.60;75.00;;;;;;5053511;28;20497;-71
2023/04/06 03:18:53;;;;;;;7.03;4.13;;;9.30;75.00;;;;;;5049782;28;20048;-71
2023/04/06 03:21:56;;;;;;;5.82;4.38;;;9.20;74.70;;;;;;5050828;28;20048;-72
2023/04/06 03:25:01;;;;;;;8.38;4.70;;;10.10;75.50;;;;;;5049852;28;20525;-73
2023/04/06 03:28:06;;;;;;;10.50;4.43;;;10.10;75.90;;;;;;5050913;28;20496;-72
2023/04/06 03:31:15;;;;;;;11.55;5.63;;;;;;;;;;5049471;28;20052;-73
2023/04/06 03:34:42;;;;;;;14.00;4.25;;;8.90;75.10;;;;;;5050779;28;20512;-72
2023/04/06 03:37:46;;;;;;;8.73;4.93;;;8.40;74.80;;;;;;5050413;28;20047;-72
2023/04/06 03:40:51;;;;;;;14.10;3.80;;;9.10;74.80;;;;;;5050283;28;20044;-72
2023/04/06 03:43:59;;;;;;;6.38;4.05;;;10.10;74.90;;;;;;5050328;28;20048;-72
2023/04/06 03:47:04;;;;;;;9.25;4.03;;;9.40;74.70;;;;;;5049804;28;20104;-72
2023/04/06 03:50:09;;;;;;;12.20;4.20;;;9.70;75.00;;;;;;5049805;28;20393;-72
2023/04/06 03:53:14;;;;;;;7.20;4.28;;;9.20;74.70;;;;;;5050041;28;20044;-72
2023/04/06 03:56:17;;;;;;;7.97;4.50;;;9.90;75.20;;;;;;5050402;28;20061;-72
2023/04/06 03:59:21;;;;;;;11.15;4.40;;;8.90;74.80;;;;;;5050610;28;20032;-72
2023/04/06 04:02:25;;;;;;;6.88;3.97;;;8.90;74.90;;;;;;5050466;28;20081;-72
2023/04/06 04:05:29;;;;;;;13.88;5.85;;;10.00;75.90;;;;;;5050485;28;20064;-72
2023/04/06 04:08:35;;;;;;;16.27;5.53;;;9.40;75.80;;;;;;5049658;28;20044;-72
2023/04/06 04:11:39;;;;;;;12.45;5.43;;;;;;;;;;5049351;28;20051;-72
2023/04/06 04:14:44;;;;;;;7.90;4.18;;;10.10;76.70;;;;;;5050174;28;20392;-72
2023/04/06 04:17:49;;;;;;;9.65;4.30;;;9.80;76.30;;;;;;5050576;28;20048;-72
2023/04/06 04:20:53;;;;;;;8.90;4.57;;;9.30;76.10;;;;;;5050488;28;20042;-73
2023/04/06 04:23:59;;;;;;;10.45;4.18;;;11.60;77.40;;;;;;5049466;28;20397;-72
2023/04/06 04:27:04;;;;;;;10.38;4.72;;;;;;;;;;5050585;28;20389;-73
2023/04/06 04:30:11;;;;;;;17.08;7.07;;;;;;;;;;5049469;28;20048;-73
2023/04/06 04:33:16;;;;;;;10.98;5.40;;;;;;;;;;5049488;28;20040;-71
2023/04/06 04:36:21;;;;;;;12.35;5.38;;;9.30;76.80;;;;;;5049629;28;20060;-73
2023/04/06 04:39:25;;;;;;;8.77;4.05;;;9.20;77.10;;;;;;5049550;28;20043;-72
2023/04/06 04:42:36;;;;;;;7.68;4.00;;;;;;;;;;5052422;28;20044;-73
2023/04/06 04:45:43;;;;;;;8.38;3.85;;;;;;;;;;5053072;28;20040;-74
2023/04/06 04:48:58;;;;;;;6.35;4.00;;;;;;;;;;5054129;28;20382;-72
2023/04/06 04:52:02;;;;;;;12.07;4.47;;;9.00;76.40;;;;;;5053342;28;20036;-73
2023/04/06 04:55:20;;;;;;;8.88;4.38;;;;;;;;;;5052567;28;20040;-71
2023/04/06 04:58:28;;;;;;;9.43;4.07;;;10.30;76.70;;;;;;5052964;28;20037;-72
2023/04/06 05:01:35;;;;;;;8.32;4.13;;;11.80;78.10;;;;;;5052933;28;20040;-71
2023/04/06 05:04:39;;;;;;;18.13;5.68;;;10.80;77.70;;;;;;5052883;28;20048;-74
2023/04/06 05:07:46;;;;;;;14.80;4.97;;;8.70;76.10;;;;;;5052749;28;20052;-72
2023/04/06 05:11:02;;;;;;;21.90;4.90;;;9.70;76.40;;;;;;5052647;28;20116;-72
2023/04/06 05:14:10;;;;;;;13.45;4.78;;;10.20;75.70;;;;;;5041474;28;20191;-72
2023/04/06 05:17:15;;;;;;;13.30;4.70;;;10.00;74.70;;;;;;5052285;28;20052;-72
2023/04/06 05:20:19;;;;;;;23.38;5.30;;;10.60;75.30;;;;;;5052448;28;20492;-72
2023/04/06 05:23:27;;;;;;;29.08;5.32;;;10.70;75.00;;;;;;5052253;28;20638;-72
2023/04/06 05:26:31;;;;;;;17.63;4.90;;;11.70;72.40;;;;;;5052424;28;20612;-71
2023/04/06 05:29:42;;;;;;;12.02;5.07;;;12.70;70.30;;;;;;5052414;28;20051;-71
2023/04/06 05:32:46;;;;;;;33.65;5.38;;;13.30;68.50;;;;;;5053150;28;20040;-73
2023/04/06 05:35:51;;;;;;;14.02;4.53;;;13.70;67.40;;;;;;5053001;28;20047;-71
2023/04/06 05:38:56;;;;;;;39.97;6.45;;;14.10;67.10;;;;;;5051922;28;20048;-71
2023/04/06 05:42:42;;;;;;;12.20;5.30;;;14.90;65.30;;;;;;5052513;28;20063;-59
2023/04/06 05:45:47;;;;;;;13.60;5.45;;;15.40;63.20;;;;;;5050222;28;20044;-59
2023/04/06 05:48:52;;;;;;;18.15;4.78;;;15.90;62.80;;;;;;5051209;28;20064;-58
2023/04/06 05:52:01;;;;;;;14.10;4.47;;;16.20;62.00;;;;;;5051789;28;20040;-58
2023/04/06 05:55:05;;;;;;;11.88;3.90;;;16.30;61.40;;;;;;5051586;28;20490;-59
2023/04/06 05:58:10;;;;;;;7.93;4.30;;;16.70;60.80;;;;;;5051557;28;20044;-60
2023/04/06 06:01:15;;;;;;;12.40;4.20;;;16.80;61.20;;;;;;5052687;28;20515;-59
2023/04/06 06:04:23;;;;;;;11.30;5.32;;;16.50;61.80;;;;;;5051443;28;20048;-58
2023/04/06 06:07:30;;;;;;;7.07;4.25;;;16.30;62.60;;;;;;5051728;28;20393;-61
2023/04/06 06:10:40;;;;;;;11.52;5.72;;;15.90;61.60;;;;;;5051517;28;20151;-58
2023/04/06 06:13:45;;;;;;;8.57;6.47;;;15.60;62.60;;;;;;5051409;28;20099;-59
2023/04/06 06:16:49;;;;;;;10.75;7.50;;;15.60;62.70;;;;;;5051236;28;20060;-60
2023/04/06 06:19:54;;;;;;;16.63;9.65;;;15.20;63.30;;;;;;5051316;28;20060;-59
2023/04/06 06:22:58;;;;;;;10.45;5.25;;;15.20;63.50;;;;;;5052038;28;20056;-59
2023/04/06 06:26:02;;;;;;;6.15;3.50;;;14.90;63.20;;;;;;5050828;28;20056;-60
2023/04/06 06:29:08;;;;;;;9.23;5.22;;;14.50;63.80;;;;;;5051153;28;20111;-59
2023/04/06 06:32:14;;;;;;;9.80;5.63;;;14.30;64.90;;;;;;5050971;28;20040;-61
2023/04/06 06:35:20;;;;;;;18.98;6.53;;;14.50;63.70;;;;;;5039367;28;20166;-59
2023/04/06 06:38:26;;;;;;;11.25;4.43;;;14.80;63.60;;;;;;5051362;28;20048;-60
2023/04/06 06:41:30;;;;;;;8.05;3.55;;;15.20;62.80;;;;;;5051025;28;20040;-61
2023/04/06 06:44:35;;;;;;;6.70;3.40;;;15.20;61.00;;;;;;5050991;28;20043;-60
2023/04/06 06:47:40;;;;;;;6.50;3.20;;;14.90;61.10;;;;;;5051397;28;20048;-59
2023/04/06 06:50:46;;;;;;;6.63;3.40;;;14.80;61.80;;;;;;5051598;28;20476;-60
2023/04/06 06:53:50;;;;;;;6.28;3.20;;;14.80;61.10;;;;;;5050615;28;20040;-59
2023/04/06 06:56:54;;;;;;;6.65;3.25;;;14.80;61.30;;;;;;5051173;28;20056;-60
2023/04/06 06:59:59;;;;;;;5.38;3.30;;;14.90;61.50;;;;;;5050178;28;20401;-63
2023/04/06 07:03:04;;;;;;;7.07;3.17;;;15.20;60.60;;;;;;5050216;28;20040;-59
2023/04/06 07:06:09;;;;;;;7.78;3.22;;;15.60;60.40;;;;;;5049780;28;20052;-60
2023/04/06 07:09:12;;;;;;;5.68;2.90;;;15.60;59.80;;;;;;5051213;28;20396;-62
2023/04/06 07:12:18;;;;;;;6.18;3.10;;;15.30;60.70;;;;;;5051299;28;20048;-60
2023/04/06 07:15:22;;;;;;;7.70;3.28;;;15.30;60.90;;;;;;5051003;28;20040;-61
2023/04/06 07:18:28;;;;;;;5.82;3.10;;;15.50;60.40;;;;;;5050414;28;20047;-60
2023/04/06 07:21:32;;;;;;;5.43;3.08;;;15.60;60.10;;;;;;5051035;28;20044;-62
2023/04/06 07:24:36;;;;;;;5.70;3.22;;;16.00;60.20;;;;;;5050079;28;20401;-59
2023/04/06 07:27:40;;;;;;;5.82;3.30;;;16.00;59.60;;;;;;5050910;28;20043;-59
2023/04/06 07:30:45;;;;;;;9.43;2.70;;;16.00;59.50;;;;;;5049730;28;20040;-60
2023/04/06 07:33:50;;;;;;;10.52;3.20;;;16.10;58.80;;;;;;5049760;28;20044;-60
2023/04/06 07:36:56;;;;;;;8.63;3.15;;;16.00;59.30;;;;;;5050627;28;20405;-59
2023/04/06 07:40:00;;;;;;;6.47;3.38;;;16.20;59.40;;;;;;5049781;28;20032;-60
2023/04/06 07:43:04;;;;;;;9.40;2.92;;;16.50;58.50;;;;;;5049843;28;20044;-60
2023/04/06 07:46:09;;;;;;;10.77;3.55;;;16.60;58.30;;;;;;5049988;28;20040;-60
2023/04/06 07:49:13;;;;;;;15.45;5.00;;;16.70;58.40;;;;;;5049767;28;20539;-61
2023/04/06 07:52:16;;;;;;;9.57;4.00;;;16.90;59.50;;;;;;5038060;28;20048;-62
2023/04/06 07:55:21;;;;;;;10.38;3.47;;;17.30;58.80;;;;;;5049591;28;20056;-62
2023/04/06 07:58:25;;;;;;;14.00;3.38;;;17.50;56.90;;;;;;5050521;28;20055;-62
2023/04/06 08:01:30;;;;;;;6.75;3.28;;;17.40;56.90;;;;;;5050353;28;20154;-63
2023/04/06 08:04:35;;;;;;;7.20;3.80;;;17.50;58.40;;;;;;5050776;28;20404;-63
2023/04/06 08:07:39;;;;;;;7.90;3.50;;;17.80;57.10;;;;;;5050519;28;20052;-63
2023/04/06 08:10:43;;;;;;;10.93;3.33;;;17.90;56.50;;;;;;5050431;28;20048;-64
2023/04/06 08:13:47;;;;;;;10.05;3.45;;;18.00;54.90;;;;;;5049099;28;20040;-64
2023/04/06 08:16:51;;;;;;;5.13;3.28;;;18.00;55.30;;;;;;5052071;28;20059;-65
2023/04/06 08:19:55;;;;;;;9.23;2.83;;;17.90;55.10;;;;;;5053288;28;20500;-64
2023/04/06 08:22:59;;;;;;;8.75;3.05;;;17.70;55.80;;;;;;5053783;28;20048;-63
2023/04/06 08:26:03;;;;;;;8.18;3.28;;;17.30;56.10;;;;;;5053859;28;20547;-66
2023/04/06 08:29:07;;;;;;;5.88;3.08;;;17.30;56.60;;;;;;5054289;28;20044;-64
2023/04/06 08:32:11;;;;;;;15.63;3.35;;;16.70;56.60;;;;;;5053935;28;20124;-64
2023/04/06 08:35:15;;;;;;;5.40;2.88;;;16.60;57.50;;;;;;5053977;28;20044;-63
2023/04/06 08:38:19;;;;;;;10.20;3.40;;;16.40;56.90;;;;;;5054121;28;20048;-65
2023/04/06 08:41:23;;;;;;;8.45;4.00;;;16.20;57.60;;;;;;5052984;28;20112;-63
2023/04/06 08:44:27;;;;;;;9.02;4.15;;;15.60;57.30;;;;;;5053199;28;20048;-65
2023/04/06 08:47:31;;;;;;;6.60;3.65;;;15.60;57.80;;;;;;5053884;28;20063;-63
2023/04/06 08:50:37;;;;;;;6.43;3.35;;;15.90;57.20;;;;;;5053614;28;20665;-64
2023/04/06 08:53:42;;;;;;;8.98;4.00;;;15.60;57.50;;;;;;5053642;28;20492;-62
2023/04/06 08:56:47;;;;;;;5.50;3.50;;;16.90;58.10;;;;;;5053700;28;20056;-60
2023/04/06 08:59:52;;;;;;;4.55;2.95;;;15.40;57.80;;;;;;5053873;28;20108;-62
2023/04/06 09:02:57;;;;;;;5.78;3.22;;;15.40;55.70;;;;;;5053719;28;20048;-61
2023/04/06 09:06:04;;;;;;;4.68;3.50;;;15.40;57.40;;;;;;5053399;28;20048;-61
2023/04/06 09:09:08;;;;;;;3.78;2.80;;;16.10;57.70;;;;;;5053471;28;20048;-60
2023/04/06 09:12:29;;;;;;;3.63;2.75;;;17.30;57.80;;;;;;5053606;28;20040;-65
2023/04/06 09:15:33;;;;;;;7.30;4.20;;;15.50;57.50;;;;;;5051480;28;20039;-62
2023/04/06 09:18:37;;;;;;;14.82;5.10;;;15.40;57.90;;;;;;5052872;28;20063;-60
2023/04/06 09:21:41;;;;;;;8.00;3.22;;;15.70;57.70;;;;;;5053873;28;20610;-62
2023/04/06 09:24:51;;;;;;;6.25;3.45;;;15.70;58.00;;;;;;5053081;28;20520;-62
2023/04/06 09:28:06;;;;;;;5.35;2.88;;;16.00;56.10;;;;;;5052294;28;20036;-60
2023/04/06 09:31:17;;;;;;;8.13;3.60;;;16.50;56.30;;;;;;5052983;28;20056;-61
2023/04/06 09:34:23;;;;;;;9.18;4.28;;;15.30;57.20;;;;;;5052885;28;20052;-60
2023/04/06 09:37:28;;;;;;;6.53;3.78;;;15.40;57.40;;;;;;5052987;28;20043;-62
2023/04/06 09:40:32;;;;;;;14.80;4.10;;;15.60;57.70;;;;;;5052950;28;20044;-60
2023/04/06 09:43:36;;;;;;;7.47;3.90;;;16.90;58.10;;;;;;5052627;28;20040;-60
2023/04/06 09:46:45;;;;;;;9.80;3.47;;;15.80;57.20;;;;;;5052754;28;20504;-60
2023/04/06 09:49:52;;;;;;;6.47;3.40;;;16.00;56.90;;;;;;5052734;28;20564;-61
2023/04/06 09:52:59;;;;;;;4.50;3.17;;;15.80;57.00;;;;;;5052638;28;20052;-61
2023/04/06 09:56:09;;;;;;;5.05;3.38;;;15.70;56.80;;;;;;5052154;28;20039;-61
2023/04/06 09:59:21;;;;;;;8.50;3.78;;;15.40;57.10;;;;;;5051608;28;20402;-60
2023/04/06 10:02:33;;;;;;;9.13;4.97;;;15.50;56.90;;;;;;5052477;28;20044;-60
2023/04/06 10:05:46;;;;;;;5.40;3.28;;;15.80;56.60;;;;;;5052457;28;20664;-59
2023/04/06 10:08:54;;;;;;;6.50;3.05;;;15.80;56.20;;;;;;5052342;28;20064;-60
2023/04/06 10:11:58;;;;;;;4.07;2.58;;;15.60;57.10;;;;;;5051915;28;20503;-59
2023/04/06 10:15:02;;;;;;;5.78;3.22;;;16.10;57.70;;;;;;5050904;28;20044;-58
2023/04/06 10:18:07;;;;;;;7.88;3.20;;;15.30;55.90;;;;;;5051886;28;20048;-60
2023/04/06 10:21:15;;;;;;;8.18;3.60;;;16.00;56.50;;;;;;5051166;28;20056;-59
2023/04/06 10:24:20;;;;;;;4.63;2.75;;;16.20;56.70;;;;;;5052044;28;20036;-59
2023/04/06 10:27:29;;;;;;;7.47;3.58;;;16.10;56.20;;;;;;5052005;28;20040;-61
2023/04/06 10:30:35;;;;;;;9.43;4.05;;;16.10;56.40;;;;;;5051855;28;20048;-59
2023/04/06 10:33:40;;;;;;;8.25;3.55;;;16.40;56.50;;;;;;5051747;28;20044;-58
2023/04/06 10:36:44;;;;;;;8.55;3.05;;;16.60;56.10;;;;;;5051508;28;20052;-60
2023/04/06 10:39:55;;;;;;;4.13;2.45;;;16.90;55.10;;;;;;5051782;28;20052;-60
2023/04/06 10:43:10;;;;;;;6.38;2.55;;;16.90;55.00;;;;;;5051533;28;20048;-60
2023/04/06 10:46:29;;;;;;;5.75;2.60;;;17.30;54.90;;;;;;5051231;28;20056;-60
2023/04/06 10:49:33;;;;;;;6.03;3.20;;;17.40;54.60;;;;;;5050574;28;20396;-58
2023/04/06 10:52:37;;;;;;;8.38;3.30;;;17.10;53.80;;;;;;5050678;28;20044;-59
2023/04/06 10:55:43;;;;;;;5.25;2.85;;;17.10;54.30;;;;;;5050433;28;20532;-59
2023/04/06 10:58:49;;;;;;;8.23;3.28;;;16.70;54.70;;;;;;5051116;28;20055;-60
2023/04/06 11:01:55;;;;;;;6.18;3.15;;;15.70;56.40;;;;;;5051140;28;20040;-63
2023/04/06 11:04:59;;;;;;;6.90;3.28;;;16.80;57.50;;;;;;5051350;28;20044;-59
2023/04/06 11:08:04;;;;;;;8.43;3.80;;;15.70;57.20;;;;;;5051260;28;20044;-60
2023/04/06 11:11:15;;;;;;;6.00;3.47;;;15.50;56.70;;;;;;5050272;28;20055;-59
2023/04/06 11:14:19;;;;;;;7.47;3.15;;;15.60;57.80;;;;;;5050887;28;20044;-59
2023/04/06 11:17:27;;;;;;;13.70;5.07;;;15.90;58.10;;;;;;5050696;28;20076;-62
2023/04/06 11:20:31;;;;;;;8.35;3.45;;;16.20;56.60;;;;;;5050945;28;20064;-60
2023/04/06 11:23:35;;;;;;;12.65;3.88;;;16.60;56.70;;;;;;5051028;28;20570;-60
2023/04/06 11:26:55;;;;;;;9.60;3.63;;;16.50;57.00;;;;;;5050967;28;20056;-61
2023/04/06 11:30:00;;;;;;;8.77;4.07;;;16.50;55.70;;;;;;5050942;28;20052;-59
2023/04/06 11:33:04;;;;;;;9.25;3.20;;;16.50;56.60;;;;;;5050770;28;20044;-60
2023/04/06 11:36:08;;;;;;;6.80;2.92;;;16.70;56.60;;;;;;5050815;28;20044;-60
2023/04/06 11:39:18;;;;;;;10.43;3.90;;;16.60;56.90;;;;;;5050926;28;20047;-60
2023/04/06 11:42:29;;;;;;;10.68;4.25;;;16.60;56.10;;;;;;5050628;28;20044;-60
2023/04/06 11:45:43;;;;;;;5.43;3.97;;;16.20;56.20;;;;;;5050752;28;20036;-59
2023/04/06 11:48:47;;;;;;;6.25;3.05;;;16.10;56.50;;;;;;5050879;28;20056;-59
2023/04/06 11:51:51;;;;;;;12.38;3.92;;;16.20;55.90;;;;;;5049449;28;20043;-60
2023/04/06 11:54:56;;;;;;;8.90;3.70;;;16.10;56.30;;;;;;5050639;28;20052;-60
2023/04/06 11:58:00;;;;;;;5.72;3.42;;;16.10;56.80;;;;;;5050259;28;20060;-59
2023/04/06 12:01:05;;;;;;;5.68;4.00;;;16.20;56.10;;;;;;5050349;28;20528;-59
2023/04/06 12:04:09;;;;;;;10.05;3.97;;;16.10;56.10;;;;;;5050444;28;20420;-60
2023/04/06 12:07:13;;;;;;;21.70;4.60;;;15.90;56.40;;;;;;5050467;28;20048;-60
2023/04/06 12:10:18;;;;;;;11.18;4.10;;;16.00;56.50;;;;;;5038179;28;20044;-60
2023/04/06 12:13:22;;;;;;;6.25;3.53;;;16.20;57.00;;;;;;5050815;28;20052;-59
2023/04/06 12:16:26;;;;;;;8.75;3.55;;;16.20;56.50;;;;;;5050572;28;20044;-60
2023/04/06 12:19:30;;;;;;;8.93;3.65;;;16.20;56.20;;;;;;5050339;28;20055;-59
2023/04/06 12:22:34;;;;;;;7.72;3.30;;;16.10;56.50;;;;;;5050615;28;20528;-62
2023/04/06 12:25:40;;;;;;;14.95;3.95;;;16.20;57.70;;;;;;5049967;28;20056;-60
2023/04/06 12:28:44;;;;;;;5.88;3.45;;;16.30;57.00;;;;;;5050062;28;20070;-59
2023/04/06 12:31:49;;;;;;;8.55;3.78;;;16.30;56.70;;;;;;5050435;28;20051;-60
2023/04/06 12:34:53;;;;;;;7.55;4.05;;;16.80;57.00;;;;;;5050163;28;20048;-58
2023/04/06 12:37:57;;;;;;;6.20;3.55;;;15.80;56.10;;;;;;5050041;28;20052;-58
2023/04/06 12:41:02;;;;;;;8.65;3.22;;;15.70;56.70;;;;;;5050059;28;20393;-61
2023/04/06 12:44:06;;;;;;;10.40;3.63;;;15.60;56.90;;;;;;5048997;28;20044;-59
2023/04/06 12:47:11;;;;;;;7.70;3.97;;;15.70;56.60;;;;;;5049934;28;20048;-60
2023/04/06 12:50:15;;;;;;;13.18;3.97;;;15.80;56.80;;;;;;5050011;28;20064;-60
2023/04/06 12:53:19;;;;;;;6.45;3.92;;;15.80;56.70;;;;;;5050151;28;20191;-60
2023/04/06 12:56:23;;;;;;;5.18;3.28;;;16.10;56.00;;;;;;5050007;28;20388;-60
2023/04/06 12:59:30;;;;;;;11.27;3.60;;;16.00;56.50;;;;;;5050249;28;20561;-58
2023/04/06 13:02:35;;;;;;;7.80;3.97;;;16.00;57.80;;;;;;5049014;28;20045;-60
2023/04/06 13:05:46;;;;;;;6.72;3.67;;;16.00;56.70;;;;;;5052824;28;20044;-59
2023/04/06 13:08:50;;;;;;;;;;;16.10;55.60;;;;;;5053591;28;20147;-59
2023/04/06 13:11:55;;;;;;;13.18;3.92;;;16.20;55.10;;;;;;5052531;28;20344;-60
2023/04/06 13:14:59;;;;;;;4.82;3.58;;;16.10;55.70;;;;;;5052658;28;20048;-63
2023/04/06 13:18:04;;;;;;;4.88;3.80;;;16.20;56.40;;;;;;5053177;28;20064;-61
2023/04/06 13:21:09;;;;;;;4.47;2.85;;;17.10;56.50;;;;;;5029545;28;20401;-59
2023/04/06 13:24:13;;;;;;;3.75;2.30;;;16.50;56.70;;;;;;5053112;28;20056;-59
2023/04/06 13:27:17;;;;;;;6.35;2.70;;;16.60;57.00;;;;;;5052902;28;20369;-60
2023/04/06 13:30:22;;;;;;;8.10;3.50;;;16.70;55.00;;;;;;5052912;28;20052;-59
2023/04/06 13:33:26;;;;;;;11.15;3.90;;;16.70;55.10;;;;;;5052817;28;20525;-59
2023/04/06 13:36:31;;;;;;;6.75;3.55;;;16.70;55.00;;;;;;5052897;28;20401;-60
2023/04/06 13:39:36;;;;;;;7.60;3.50;;;16.60;55.00;;;;;;5053065;28;20056;-60
2023/04/06 13:42:41;;;;;;;9.68;4.47;;;16.60;54.90;;;;;;5053077;28;20397;-59
2023/04/06 13:45:54;;;;;;;10.57;5.70;;;16.60;55.90;;;;;;5052734;28;20044;-59
2023/04/06 13:48:58;;;;;;;11.45;6.00;;;16.70;60.80;;;;;;5052872;28;20048;-59
2023/04/06 13:52:02;;;;;;;9.50;5.90;;;16.70;60.10;;;;;;5052692;28;20060;-59
2023/04/06 13:55:06;;;;;;;11.88;5.32;;;16.70;62.30;;;;;;5052734;28;20119;-59
2023/04/06 13:58:12;;;;;;;10.25;5.22;;;16.80;63.10;;;;;;5052331;28;20060;-61
2023/04/06 14:01:16;;;;;;;20.55;6.63;;;16.80;63.20;;;;;;5039844;28;20134;-59
2023/04/06 14:04:20;;;;;;;28.20;6.00;;;16.80;62.70;;;;;;5052249;28;20393;-60
2023/04/06 14:07:24;;;;;;;11.43;5.10;;;16.70;62.30;;;;;;5052323;28;20048;-60
2023/04/06 14:10:28;;;;;;;12.07;6.18;;;16.70;62.70;;;;;;5052146;28;20032;-60
2023/04/06 14:13:32;;;;;;;15.95;5.55;;;16.70;63.10;;;;;;5052062;28;20047;-60
2023/04/06 14:16:36;;;;;;;13.90;6.07;;;16.60;63.40;;;;;;5052086;28;20048;-60
2023/04/06 14:19:40;;;;;;;18.70;5.22;;;16.60;63.70;;;;;;5052023;28;20126;-58
2023/04/06 14:22:44;;;;;;;10.25;5.38;;;16.60;64.30;;;;;;5052185;28;20039;-59
2023/04/06 14:25:48;;;;;;;14.30;5.50;;;16.50;65.00;;;;;;5050965;28;20068;-59
2023/04/06 14:28:52;;;;;;;7.15;4.38;;;16.50;64.80;;;;;;5050895;28;20047;-60
2023/04/06 14:31:59;;;;;;;14.68;4.53;;;16.50;63.90;;;;;;5051538;28;20033;-60
2023/04/06 14:35:05;;;;;;;13.85;5.25;;;16.50;64.40;;;;;;5050922;28;20048;-59
2023/04/06 14:38:09;;;;;;;9.10;3.78;;;16.50;64.30;;;;;;5051602;28;20124;-59
2023/04/06 14:41:21;;;;;;;10.43;4.93;;;16.50;64.70;;;;;;5051487;28;20401;-60
2023/04/06 14:44:25;;;;;;;29.67;7.25;;;16.50;64.30;;;;;;5051350;28;20063;-60
2023/04/06 14:47:28;;;;;;;12.38;5.45;;;16.60;64.60;;;;;;5051592;28;20040;-59
2023/04/06 14:50:34;;;;;;;9.65;5.65;;;16.50;65.00;;;;;;5051322;28;20040;-59
2023/04/06 14:53:38;;;;;;;12.65;5.55;;;16.40;64.00;;;;;;5051428;28;20040;-59
2023/04/06 14:56:42;;;;;;;15.85;8.18;;;16.40;64.20;;;;;;5050922;28;20063;-59
2023/04/06 14:59:46;;;;;;;7.45;4.40;;;16.30;64.00;;;;;;5051063;28;20091;-59
2023/04/06 15:02:51;;;;;;;11.98;5.05;;;16.20;64.50;;;;;;5050979;28;20044;-60
2023/04/06 15:05:58;;;;;;;26.15;5.88;;;16.20;63.90;;;;;;5050983;28;20500;-58
2023/04/06 15:09:02;;;;;;;28.65;7.45;;;16.10;63.60;;;;;;5050219;28;20404;-60
2023/04/06 15:12:07;;;;;;;16.40;5.65;;;16.10;64.70;;;;;;5051329;28;20043;-59
2023/04/06 15:15:11;;;;;;;15.52;5.72;;;16.00;65.40;;;;;;5050204;28;20040;-59
2023/04/06 15:18:15;;;;;;;18.20;5.35;;;16.00;64.30;;;;;;5051037;28;20574;-60
2023/04/06 15:21:20;;;;;;;16.42;6.35;;;15.90;64.20;;;;;;5050578;28;20059;-59
2023/04/06 15:24:24;;;;;;;32.15;9.65;;;15.90;64.50;;;;;;5050086;28;20151;-59
2023/04/06 15:27:28;;;;;;;18.38;5.90;;;15.90;65.00;;;;;;5050602;28;20051;-59
2023/04/06 15:30:32;;;;;;;15.43;5.35;;;15.90;65.20;;;;;;5050820;28;20044;-60
2023/04/06 15:33:37;;;;;;;17.10;6.03;;;15.90;65.30;;;;;;5050859;28;20040;-59
2023/04/06 15:36:43;;;;;;;19.23;5.82;;;15.90;65.30;;;;;;5051127;28;20420;-60
2023/04/06 15:39:47;;;;;;;25.45;6.35;;;15.90;65.20;;;;;;5050800;28;20052;-59
2023/04/06 15:42:51;;;;;;;13.68;4.78;;;15.90;64.90;;;;;;5050359;28;20040;-59
2023/04/06 15:45:56;;;;;;;8.80;4.25;;;15.90;65.40;;;;;;5050986;28;20127;-60
2023/04/06 15:49:01;;;;;;;9.95;5.70;;;16.00;67.20;;;;;;5051037;28;20036;-59
2023/04/06 15:52:05;;;;;;;12.30;5.15;;;16.00;66.50;;;;;;5049619;28;20048;-60
2023/04/06 15:55:09;;;;;;;16.63;4.95;;;16.10;66.60;;;;;;5050378;28;20048;-60
2023/04/06 15:58:13;;;;;;;25.00;6.15;;;16.00;66.30;;;;;;5049573;28;20052;-59
2023/04/06 16:01:18;;;;;;;10.40;4.13;;;16.00;65.50;;;;;;5050187;28;20040;-59
2023/04/06 16:04:22;;;;;;;13.70;5.13;;;15.40;65.30;;;;;;5050273;28;20394;-59
2023/04/06 16:07:26;;;;;;;12.65;5.28;;;15.90;66.20;;;;;;5050214;28;20040;-61
2023/04/06 16:10:31;;;;;;;12.85;4.32;;;15.70;65.90;;;;;;5049292;28;20052;-61
2023/04/06 16:13:36;;;;;;;11.45;4.05;;;15.70;68.20;;;;;;5050363;28;20504;-60